< Typhoon 197115 1971 Season Typhoon 197117 >
Typhoon 197116 (LUCY)
General InformationTrack Information on Google Maps || Disaster Info.ResourceGoogle EarthGE AnimationAtom FeedGeoJSON
Detalied Best Track (Time Zone = UTC)
Year Month Day Hour Lat. Long. Pressure (hPa) Wind (kt) Class Image Chart
1971 7 13 06 11.0 145.0 1006 0 2 -- Chart
1971 7 13 12 12.0 144.0 1006 0 2 -- Chart
1971 7 13 18 13.0 143.0 1006 0 2 -- Chart
1971 7 14 00 13.8 141.7 1006 0 2 -- Chart
1971 7 14 06 14.0 140.2 1006 0 2 -- Chart
1971 7 14 12 14.0 139.1 1006 0 2 -- Chart
1971 7 14 18 14.0 138.2 1006 0 2 -- Chart
1971 7 15 00 14.0 137.3 1006 0 2 -- Chart
1971 7 15 06 14.3 136.4 1006 0 2 -- Chart
1971 7 15 12 14.4 135.6 1006 0 2 -- Chart
1971 7 15 18 14.6 134.9 1004 0 2 -- Chart
1971 7 16 00 14.9 134.2 1004 0 2 -- Chart
1971 7 16 06 15.0 133.1 1000 0 9 -- Chart
1971 7 16 12 15.0 132.3 990 0 9 -- Chart
1971 7 16 18 15.0 132.0 985 0 9 -- Chart
1971 7 17 00 15.2 131.6 980 0 9 -- Chart
1971 7 17 06 15.3 131.3 975 0 9 -- Chart
1971 7 17 12 15.5 130.6 970 0 9 -- Chart
1971 7 17 18 15.7 129.7 960 0 9 -- Chart
1971 7 18 00 16.2 128.8 945 0 9 -- Chart
1971 7 18 06 16.4 128.4 935 0 9 -- Chart
1971 7 18 12 16.7 127.8 925 0 9 -- Chart
1971 7 18 18 17.3 127.2 920 0 9 -- Chart
1971 7 19 00 17.8 126.4 915 0 9 -- Chart
1971 7 19 06 18.4 125.5 910 0 9 -- Chart
1971 7 19 12 18.7 124.7 920 0 9 -- Chart
1971 7 19 18 19.0 124.0 930 0 9 -- Chart
1971 7 20 00 19.5 123.1 935 0 9 -- Chart
1971 7 20 06 19.9 122.3 935 0 9 -- Chart
1971 7 20 12 20.4 121.0 940 0 9 -- Chart
1971 7 20 18 20.7 119.5 950 0 9 -- Chart
1971 7 21 00 21.0 118.6 955 0 9 -- Chart
1971 7 21 06 21.3 117.6 960 0 9 -- Chart
1971 7 21 12 21.5 116.8 960 0 9 -- Chart
1971 7 21 18 21.8 115.8 960 0 9 -- Chart
1971 7 22 00 22.0 115.0 960 0 9 -- Chart
1971 7 22 06 22.7 112.5 980 0 9 -- Chart
1971 7 22 12 23.0 111.8 986 0 9 -- Chart
1971 7 22 18 23.2 109.8 988 0 2 -- Chart
1971 7 23 00 23.0 108.0 988 0 2 -- Chart
1971 7 23 06 23.0 106.6 990 0 2 -- Chart
1971 7 23 12 22.4 105.4 992 0 2 -- Chart
1971 7 23 18 22.5 103.8 994 0 2 -- Chart
1971 7 24 00 22.6 102.0 996 0 2 -- Chart
1971 7 24 06 22.7 100.4 996 0 2 -- Chart
Japan Meteorological Agency Best Track Data | Correction Date : 2013-03-19
< Typhoon 197115 1971 Season Typhoon 197117 >

Help